createdAt,value
2018-11-04T00:00:21.136Z,101873.53
2018-11-04T00:02:48.974Z,101874.16
2018-11-04T00:05:16.412Z,101865.61
2018-11-04T00:07:43.985Z,101859.65
2018-11-04T00:10:12.051Z,101866.55
2018-11-04T00:12:39.504Z,101862.44
2018-11-04T00:15:08.708Z,101856.56
2018-11-04T00:17:37.488Z,101849.30
2018-11-04T00:20:08.152Z,101849.26
2018-11-04T00:22:35.515Z,101843.73
2018-11-04T00:25:02.904Z,101836.48
2018-11-04T00:27:30.166Z,101837.66
2018-11-04T00:29:57.419Z,101842.48
2018-11-04T00:32:24.424Z,101833.92
2018-11-04T00:34:51.680Z,101828.05
2018-11-04T00:37:18.991Z,101829.49
2018-11-04T00:39:46.192Z,101830.99
2018-11-04T00:42:13.289Z,101822.72
2018-11-04T00:44:40.487Z,101821.11
2018-11-04T00:47:07.696Z,101819.95
2018-11-04T00:49:35.175Z,101808.66
2018-11-04T00:52:02.753Z,101807.77
2018-11-04T00:54:30.035Z,101809.76
2018-11-04T00:56:57.430Z,101800.88
2018-11-04T00:59:24.552Z,101802.66
2018-11-04T01:01:51.837Z,101801.80
2018-11-04T01:04:19.352Z,101797.73
2018-11-04T01:06:46.515Z,101799.64
2018-11-04T01:09:15.339Z,101805.34
2018-11-04T01:11:42.313Z,101799.56
2018-11-04T01:14:09.973Z,101791.14
2018-11-04T01:16:37.160Z,101792.36
2018-11-04T01:19:05.435Z,101776.70
2018-11-04T01:21:32.603Z,101772.18
2018-11-04T01:23:59.882Z,101774.95
2018-11-04T01:26:27.016Z,101773.77
2018-11-04T01:28:55.546Z,101764.23
2018-11-04T01:31:22.697Z,101756.45
2018-11-04T01:33:49.820Z,101753.47
2018-11-04T01:36:17.023Z,101750.00
2018-11-04T01:38:44.080Z,101752.02
2018-11-04T01:41:11.363Z,101745.94
2018-11-04T01:43:38.563Z,101739.02
2018-11-04T01:46:05.672Z,101739.29
2018-11-04T01:48:32.755Z,101732.67
2018-11-04T01:50:59.854Z,101726.69
2018-11-04T01:53:26.920Z,101724.47
2018-11-04T01:55:54.048Z,101712.39
2018-11-04T01:58:21.206Z,101714.83
2018-11-04T02:00:48.404Z,101705.17
2018-11-04T02:03:15.554Z,101697.97
2018-11-04T02:05:42.641Z,101692.02
2018-11-04T02:08:09.747Z,101690.84
2018-11-04T02:10:36.833Z,101684.33
2018-11-04T02:13:04.111Z,101680.95
2018-11-04T02:15:31.200Z,101677.28
2018-11-04T02:17:58.396Z,101682.37
2018-11-04T02:20:25.635Z,101683.28
2018-11-04T02:22:52.700Z,101680.50
2018-11-04T02:25:19.872Z,101672.69
2018-11-04T02:27:47.035Z,101663.50
2018-11-04T02:30:15.567Z,101660.80
2018-11-04T02:32:44.141Z,101655.71
2018-11-04T02:35:12.707Z,101658.16
2018-11-04T02:37:41.288Z,101650.33
2018-11-04T02:40:08.523Z,101646.70
2018-11-04T02:42:36.204Z,101646.94
2018-11-04T02:45:03.684Z,101643.84
2018-11-04T02:47:30.763Z,101639.75
2018-11-04T02:49:57.819Z,101638.03
2018-11-04T02:52:25.008Z,101589.83
2018-11-04T02:54:57.532Z,101638.72
2018-11-04T02:57:36.902Z,101631.34
2018-11-04T03:00:14.044Z,101627.26
2018-11-04T03:02:44.867Z,101624.23
2018-11-04T03:05:12.119Z,101617.70
2018-11-04T03:07:41.463Z,101623.35
2018-11-04T03:10:09.973Z,101622.48
2018-11-04T03:12:37.323Z,101618.25
2018-11-04T03:15:04.508Z,101621.05
2018-11-04T03:17:31.579Z,101618.72
2018-11-04T03:19:58.774Z,101610.36
2018-11-04T03:22:26.989Z,101610.69
2018-11-04T03:24:54.057Z,101611.70
2018-11-04T03:27:21.104Z,101607.30
2018-11-04T03:29:48.272Z,101602.70
2018-11-04T03:32:16.679Z,101602.51
2018-11-04T03:34:43.744Z,101598.89
2018-11-04T03:37:11.284Z,101595.19
2018-11-04T03:39:38.459Z,101586.88
2018-11-04T03:42:05.536Z,101589.63
2018-11-04T03:44:32.650Z,101579.81
2018-11-04T03:46:59.743Z,101567.86
2018-11-04T03:49:26.796Z,101572.92
2018-11-04T03:51:53.897Z,101568.24
2018-11-04T03:54:20.952Z,101569.61
2018-11-04T03:56:48.004Z,101570.53
2018-11-04T03:59:15.320Z,101572.83
2018-11-04T04:01:42.389Z,101572.45
2018-11-04T04:04:10.798Z,101565.13
2018-11-04T04:06:37.991Z,101557.72
2018-11-04T04:09:09.036Z,101554.31
2018-11-04T04:11:36.283Z,101550.25
2018-11-04T04:14:03.444Z,101550.31
2018-11-04T04:16:30.524Z,101548.34
2018-11-04T04:18:57.628Z,101545.72
2018-11-04T04:21:24.706Z,101542.19
2018-11-04T04:23:51.793Z,101547.98
2018-11-04T04:26:18.873Z,101548.34
2018-11-04T04:28:46.356Z,101542.13
2018-11-04T04:31:13.526Z,101544.56
2018-11-04T04:33:40.702Z,101538.11
2018-11-04T04:36:08.983Z,101538.11
2018-11-04T04:38:36.131Z,101533.76
2018-11-04T04:41:03.343Z,101539.78
2018-11-04T04:43:30.855Z,101524.86
2018-11-04T04:45:57.915Z,101528.95
2018-11-04T04:48:24.978Z,101525.55
2018-11-04T04:50:52.548Z,101534.76
2018-11-04T04:53:22.431Z,101526.53
2018-11-04T04:55:49.941Z,101523.61
2018-11-04T04:58:17.408Z,101518.33
2018-11-04T05:00:44.575Z,101512.79
2018-11-04T05:03:11.644Z,101509.06
2018-11-04T05:05:39.028Z,101502.55
2018-11-04T05:08:06.214Z,101505.84
2018-11-04T05:10:33.379Z,101499.98
2018-11-04T05:13:00.450Z,101500.66
2018-11-04T05:15:27.530Z,101496.42
2018-11-04T05:17:55.040Z,101494.58
2018-11-04T05:20:22.107Z,101496.80
2018-11-04T05:22:49.159Z,101491.15
2018-11-04T05:25:16.256Z,101496.05
2018-11-04T05:27:43.416Z,101495.28
2018-11-04T05:30:11.534Z,101491.17
2018-11-04T05:32:38.698Z,101497.60
2018-11-04T05:35:07.612Z,101499.66
2018-11-04T05:37:35.655Z,101498.78
2018-11-04T05:40:04.428Z,101496.66
2018-11-04T05:42:31.592Z,101493.43
2018-11-04T05:44:58.684Z,101490.20
2018-11-04T05:47:25.774Z,101493.20
2018-11-04T05:49:53.179Z,101494.37
2018-11-04T05:52:20.280Z,101490.71
2018-11-04T05:54:47.440Z,101489.27
2018-11-04T05:57:14.667Z,101485.47
2018-11-04T05:59:41.819Z,101480.70
2018-11-04T06:02:08.971Z,101487.22
2018-11-04T06:04:36.240Z,101481.63
2018-11-04T06:07:03.397Z,101481.36
2018-11-04T06:09:30.473Z,101483.98
2018-11-04T06:11:57.580Z,101480.26
2018-11-04T06:14:24.695Z,101485.73
2018-11-04T06:16:52.300Z,101488.97
2018-11-04T06:19:19.471Z,101487.11
2018-11-04T06:21:46.566Z,101483.98
2018-11-04T06:24:13.700Z,101481.80
2018-11-04T06:26:40.761Z,101489.70
2018-11-04T06:29:08.367Z,101495.85
2018-11-04T06:31:35.446Z,101493.94
2018-11-04T06:34:02.527Z,101494.44
2018-11-04T06:36:29.695Z,101501.91
2018-11-04T06:38:56.837Z,101501.70
2018-11-04T06:41:24.336Z,101506.11
2018-11-04T06:43:51.728Z,101504.49
2018-11-04T06:46:18.844Z,101499.02
2018-11-04T06:48:45.960Z,101499.58
2018-11-04T06:51:13.027Z,101491.61
2018-11-04T06:53:40.115Z,101492.95
2018-11-04T06:56:07.188Z,101490.53
2018-11-04T06:58:34.427Z,101484.61
2018-11-04T07:01:01.514Z,101485.03
2018-11-04T07:03:28.607Z,101485.26
2018-11-04T07:05:55.769Z,101486.89
2018-11-04T07:08:22.976Z,101484.31
2018-11-04T07:10:55.107Z,101491.34
2018-11-04T07:13:23.457Z,101487.32
2018-11-04T07:15:50.559Z,101491.63
2018-11-04T07:18:17.713Z,101490.53
2018-11-04T07:20:44.805Z,101496.96
2018-11-04T07:23:11.912Z,101491.70
2018-11-04T07:25:39.272Z,101487.83
2018-11-04T07:28:06.626Z,101484.95
2018-11-04T07:30:34.046Z,101486.77
2018-11-04T07:33:01.140Z,101484.42
2018-11-04T07:35:28.554Z,101484.00
2018-11-04T07:37:56.101Z,101480.63
2018-11-04T07:40:23.750Z,101482.22
2018-11-04T07:42:51.270Z,101477.52
2018-11-04T07:45:18.464Z,101478.31
2018-11-04T07:47:45.734Z,101472.70
2018-11-04T07:50:14.626Z,101470.38
2018-11-04T07:52:42.732Z,101465.31
2018-11-04T07:55:10.450Z,101475.02
2018-11-04T07:57:40.568Z,101470.28
2018-11-04T08:00:10.908Z,101473.58
2018-11-04T08:02:38.135Z,101470.95
2018-11-04T08:05:06.546Z,101474.37
2018-11-04T08:07:33.756Z,101471.51
2018-11-04T08:10:01.140Z,101458.22
2018-11-04T08:12:28.458Z,101449.57
2018-11-04T08:14:56.065Z,101442.00
2018-11-04T08:17:23.301Z,101435.39
2018-11-04T08:19:50.699Z,101430.66
2018-11-04T08:22:20.924Z,101431.94
2018-11-04T08:24:51.193Z,101435.66
2018-11-04T08:27:21.207Z,101438.64
2018-11-04T08:29:52.968Z,101434.80
2018-11-04T08:32:22.660Z,101430.11
2018-11-04T08:34:52.811Z,101421.21
2018-11-04T08:37:23.121Z,101421.48
2018-11-04T08:39:53.432Z,101421.02
2018-11-04T08:42:23.199Z,101414.78
2018-11-04T08:44:52.733Z,101424.91
2018-11-04T08:47:23.371Z,101423.95
2018-11-04T08:49:50.994Z,101418.67
2018-11-04T08:52:18.170Z,101419.05
2018-11-04T08:54:45.261Z,101418.41
2018-11-04T08:57:13.121Z,101415.98
2018-11-04T08:59:43.967Z,101420.59
2018-11-04T09:02:11.512Z,101406.94
2018-11-04T09:04:38.952Z,101402.16
2018-11-04T09:07:06.168Z,101401.39
2018-11-04T09:09:33.671Z,101408.88
2018-11-04T09:12:00.907Z,101403.98
2018-11-04T09:14:28.294Z,101410.52
2018-11-04T09:16:55.927Z,101393.83
2018-11-04T09:19:22.984Z,101396.72
2018-11-04T09:21:50.629Z,101397.94
2018-11-04T09:24:19.686Z,101400.17
2018-11-04T09:26:46.991Z,101401.68
2018-11-04T09:29:14.233Z,101394.17
2018-11-04T09:31:41.723Z,101396.00
2018-11-04T09:34:08.897Z,101394.29
2018-11-04T09:36:36.076Z,101393.86
2018-11-04T09:39:05.707Z,101391.67
2018-11-04T09:41:32.791Z,101385.27
2018-11-04T09:44:00.208Z,101383.00
2018-11-04T09:46:27.276Z,101393.64
2018-11-04T09:48:54.378Z,101380.05
2018-11-04T09:51:21.502Z,101377.82
2018-11-04T09:53:49.015Z,101375.92
2018-11-04T09:56:16.113Z,101372.56
2018-11-04T09:58:43.277Z,101371.50
2018-11-04T10:01:10.352Z,101371.84
2018-11-04T10:03:37.732Z,101367.15
2018-11-04T10:06:04.824Z,101371.12
2018-11-04T10:08:31.892Z,101370.37
2018-11-04T10:10:58.983Z,101362.64
2018-11-04T10:13:26.295Z,101361.66
2018-11-04T10:15:53.292Z,101353.14
2018-11-04T10:18:20.838Z,101361.05
2018-11-04T10:20:48.319Z,101348.93
2018-11-04T10:23:15.091Z,101355.93
2018-11-04T10:25:42.493Z,101353.34
2018-11-04T10:28:09.665Z,101355.72
2018-11-04T10:30:36.742Z,101351.59
2018-11-04T10:33:03.862Z,101346.84
2018-11-04T10:35:30.991Z,101345.72
2018-11-04T10:37:58.149Z,101346.09
2018-11-04T10:40:25.485Z,101348.96
2018-11-04T10:42:52.551Z,101344.24
2018-11-04T10:45:19.620Z,101345.75
2018-11-04T10:47:46.729Z,101335.73
2018-11-04T10:50:13.884Z,101341.22
2018-11-04T10:52:41.068Z,101342.36
2018-11-04T10:55:09.501Z,101334.72
2018-11-04T10:57:36.648Z,101328.47
2018-11-04T11:00:04.799Z,101327.36
2018-11-04T11:02:31.916Z,101325.27
2018-11-04T11:05:03.628Z,101325.47
2018-11-04T11:07:30.714Z,101325.16
2018-11-04T11:09:57.799Z,101321.34
2018-11-04T11:12:24.867Z,101318.24
2018-11-04T11:14:51.968Z,101314.63
2018-11-04T11:17:19.119Z,101315.46
2018-11-04T11:19:46.196Z,101306.95
2018-11-04T11:22:13.657Z,101301.22
2018-11-04T11:24:40.725Z,101293.36
2018-11-04T11:27:07.808Z,101291.77
2018-11-04T11:29:34.931Z,101291.72
2018-11-04T11:32:02.020Z,101284.64
2018-11-04T11:34:29.191Z,101286.55
2018-11-04T11:36:56.283Z,101285.45
2018-11-04T11:39:23.440Z,101284.34
2018-11-04T11:41:50.710Z,101278.91
2018-11-04T11:44:17.783Z,101281.94
2018-11-04T11:46:44.901Z,101275.76
2018-11-04T11:49:18.972Z,101276.83
2018-11-04T11:51:46.048Z,101274.67
2018-11-04T11:54:13.206Z,101271.03
2018-11-04T11:56:40.315Z,101265.44
2018-11-04T11:59:07.482Z,101268.51
2018-11-04T12:01:34.564Z,101261.60
2018-11-04T12:04:01.803Z,101257.45
2018-11-04T12:06:28.888Z,101258.33
2018-11-04T12:08:56.016Z,101255.41
2018-11-04T12:11:23.084Z,101247.31
2018-11-04T12:13:50.172Z,101243.78
2018-11-04T12:16:17.260Z,101238.44
2018-11-04T12:18:44.307Z,101232.98
2018-11-04T12:21:11.531Z,101236.74
2018-11-04T12:23:38.805Z,101237.70
2018-11-04T12:26:05.885Z,101228.84
2018-11-04T12:28:33.068Z,101223.67
2018-11-04T12:31:00.243Z,101223.20
2018-11-04T12:33:27.352Z,101219.23
2018-11-04T12:35:54.413Z,101213.33
2018-11-04T12:38:22.066Z,101211.55
2018-11-04T12:40:49.297Z,101208.11
2018-11-04T12:43:16.415Z,101199.17
2018-11-04T12:45:43.627Z,101199.14
2018-11-04T12:48:10.661Z,101195.99
2018-11-04T12:50:38.021Z,101198.81
2018-11-04T12:53:05.116Z,101190.79
2018-11-04T12:55:32.254Z,101190.27
2018-11-04T12:57:59.329Z,101191.48
2018-11-04T13:00:26.387Z,101177.83
2018-11-04T13:02:53.470Z,101179.94
2018-11-04T13:05:20.579Z,101177.06
2018-11-04T13:07:47.928Z,101178.69
2018-11-04T13:10:15.115Z,101169.64
2018-11-04T13:12:42.075Z,101183.44
2018-11-04T13:15:10.860Z,101175.66
2018-11-04T13:17:38.019Z,101176.91
2018-11-04T13:20:05.287Z,101170.13
2018-11-04T13:22:32.372Z,101169.73
2018-11-04T13:24:59.535Z,101171.67
2018-11-04T13:27:26.680Z,101170.41
2018-11-04T13:29:53.756Z,101163.06
2018-11-04T13:32:20.831Z,101160.16
2018-11-04T13:34:47.911Z,101156.18
2018-11-04T13:37:15.025Z,101160.45
2018-11-04T13:39:42.224Z,101154.11
2018-11-04T13:42:09.380Z,101150.75
2018-11-04T13:44:36.463Z,101152.52
2018-11-04T13:47:03.891Z,101157.73
2018-11-04T13:49:31.050Z,101150.47
2018-11-04T13:51:58.037Z,101149.47
2018-11-04T13:54:25.125Z,101148.09
2018-11-04T13:56:52.419Z,101155.28
2018-11-04T13:59:19.568Z,101154.10
2018-11-04T14:01:46.656Z,101159.13
2018-11-04T14:04:14.279Z,101162.06
2018-11-04T14:06:41.456Z,101160.24
2018-11-04T14:09:08.767Z,101151.04
2018-11-04T14:11:35.865Z,101155.34
2018-11-04T14:14:03.191Z,101159.71
2018-11-04T14:16:30.411Z,101158.45
2018-11-04T14:18:57.476Z,101152.41
2018-11-04T14:21:24.552Z,101158.70
2018-11-04T14:23:51.791Z,101155.98
2018-11-04T14:26:18.834Z,101153.22
2018-11-04T14:28:45.910Z,101157.52
2018-11-04T14:31:13.466Z,101151.77
2018-11-04T14:33:40.501Z,101146.78
2018-11-04T14:36:07.884Z,101138.64
2018-11-04T14:38:35.454Z,101143.62
2018-11-04T14:41:02.616Z,101134.28
2018-11-04T14:43:29.760Z,101127.30
2018-11-04T14:45:56.856Z,101132.55
2018-11-04T14:48:23.923Z,101133.50
2018-11-04T14:50:51.083Z,101130.47
2018-11-04T14:53:18.593Z,101131.33
2018-11-04T14:55:45.675Z,101132.70
2018-11-04T14:58:12.736Z,101134.73
2018-11-04T15:00:39.960Z,101126.09
2018-11-04T15:03:08.418Z,101123.55
2018-11-04T15:05:35.547Z,101118.27
2018-11-04T15:08:02.847Z,101125.52
2018-11-04T15:10:29.932Z,101117.48
2018-11-04T15:12:57.490Z,101111.61
2018-11-04T15:15:24.699Z,101115.33
2018-11-04T15:17:51.875Z,101118.23
2018-11-04T15:20:19.536Z,101118.11
2018-11-04T15:22:48.454Z,101107.44
2018-11-04T15:25:17.959Z,101105.28
2018-11-04T15:27:45.197Z,101114.33
2018-11-04T15:30:12.624Z,101108.75
2018-11-04T15:32:41.561Z,101101.13
2018-11-04T15:35:08.817Z,101100.45
2018-11-04T15:37:36.171Z,101099.80
2018-11-04T15:40:03.816Z,101095.92
2018-11-04T15:42:31.007Z,101091.81
2018-11-04T15:44:58.244Z,101097.86
2018-11-04T15:47:25.402Z,101101.95
2018-11-04T15:49:52.492Z,101092.44
2018-11-04T15:52:19.612Z,101093.81
2018-11-04T15:54:46.760Z,101086.19
2018-11-04T15:57:15.429Z,101093.66
2018-11-04T15:59:42.991Z,101096.08
2018-11-04T16:02:10.234Z,101093.55
2018-11-04T16:04:44.550Z,101094.94
2018-11-04T16:07:04.740Z,101092.03
2018-11-04T16:09:31.813Z,101085.88
2018-11-04T16:11:58.881Z,101091.24
2018-11-04T16:14:25.964Z,101094.36
2018-11-04T16:16:53.067Z,101093.58
2018-11-04T16:19:20.169Z,101088.25
2018-11-04T16:21:47.379Z,101088.20
2018-11-04T16:24:14.540Z,101095.50
2018-11-04T16:26:41.727Z,101093.67
2018-11-04T16:29:08.818Z,101091.33
2018-11-04T16:31:36.224Z,101085.55
2018-11-04T16:34:03.295Z,101085.55
2018-11-04T16:36:30.375Z,101084.87
2018-11-04T16:38:57.479Z,101086.61
2018-11-04T16:41:24.711Z,101083.14
2018-11-04T16:43:51.847Z,101089.41
2018-11-04T16:46:18.865Z,101087.60
2018-11-04T16:48:46.293Z,101091.63
2018-11-04T16:51:13.396Z,101095.02
2018-11-04T16:53:40.560Z,101090.16
2018-11-04T16:56:08.534Z,101083.23
2018-11-04T16:58:35.541Z,101089.30
2018-11-04T17:01:02.627Z,101089.23
2018-11-04T17:03:29.776Z,101088.66
2018-11-04T17:05:56.865Z,101088.80
2018-11-04T17:08:24.272Z,101089.72
2018-11-04T17:10:51.369Z,101093.17
2018-11-04T17:13:18.452Z,101096.58
2018-11-04T17:15:45.536Z,101100.67
2018-11-04T17:18:12.716Z,101099.02
2018-11-04T17:20:39.901Z,101088.41
2018-11-04T17:23:07.019Z,101092.16
2018-11-04T17:25:34.719Z,101084.63
2018-11-04T17:28:01.924Z,101084.14
2018-11-04T17:30:29.007Z,101088.67
2018-11-04T17:32:56.868Z,101089.45
2018-11-04T17:35:24.151Z,101092.70
2018-11-04T17:37:51.240Z,101087.58
2018-11-04T17:40:18.469Z,101091.89
2018-11-04T17:42:45.836Z,101090.03
2018-11-04T17:45:14.671Z,101085.31
2018-11-04T17:47:42.021Z,101077.16
2018-11-04T17:50:13.851Z,101074.99
2018-11-04T17:52:41.545Z,101073.17
2018-11-04T17:55:09.147Z,101076.19
2018-11-04T17:57:37.000Z,101073.61
2018-11-04T18:00:04.948Z,101068.67
2018-11-04T18:02:32.115Z,101072.19
2018-11-04T18:04:59.616Z,101073.83
2018-11-04T18:07:26.696Z,101070.48
2018-11-04T18:09:54.024Z,101066.63
2018-11-04T18:12:21.747Z,101071.63
2018-11-04T18:14:49.020Z,101063.39
2018-11-04T18:17:16.130Z,101069.45
2018-11-04T18:19:43.215Z,101069.86
2018-11-04T18:22:11.596Z,101083.48
2018-11-04T18:24:40.545Z,101076.06
2018-11-04T18:27:07.959Z,101081.16
2018-11-04T18:29:36.129Z,101082.86
2018-11-04T18:32:05.819Z,101078.97
2018-11-04T18:34:35.147Z,101075.59
2018-11-04T18:37:04.021Z,101075.36
2018-11-04T18:39:31.107Z,101074.67
2018-11-04T18:41:58.476Z,101076.41
2018-11-04T18:44:25.714Z,101070.69
2018-11-04T18:46:53.759Z,101074.73
2018-11-04T18:49:20.862Z,101072.03
2018-11-04T18:51:48.049Z,101077.66
2018-11-04T18:54:16.468Z,101071.66
2018-11-04T18:56:43.977Z,101073.19
2018-11-04T18:59:11.198Z,101074.84
2018-11-04T19:01:38.248Z,101074.02
2018-11-04T19:04:06.553Z,101074.45
2018-11-04T19:06:33.781Z,101074.45
2018-11-04T19:09:00.839Z,101069.55
2018-11-04T19:11:28.097Z,101073.25
2018-11-04T19:13:55.049Z,101073.27
2018-11-04T19:16:22.120Z,101070.09
2018-11-04T19:18:50.168Z,101069.62
2018-11-04T19:21:17.247Z,101065.14
2018-11-04T19:23:45.133Z,101062.99
2018-11-04T19:26:12.221Z,101069.49
2018-11-04T19:28:39.325Z,101067.89
2018-11-04T19:31:07.481Z,101062.27
2018-11-04T19:33:34.568Z,101061.09
2018-11-04T19:36:01.664Z,101064.55
2018-11-04T19:38:28.869Z,101065.61
2018-11-04T19:40:56.196Z,101061.99
2018-11-04T19:43:23.271Z,101056.48
2018-11-04T19:45:50.955Z,101049.94
2018-11-04T19:48:18.260Z,101047.48
2018-11-04T19:50:45.515Z,101050.98
2018-11-04T19:53:13.175Z,101051.89
2018-11-04T19:55:40.423Z,101055.69
2018-11-04T19:58:07.705Z,101048.16
2018-11-04T20:00:34.792Z,101051.17
2018-11-04T20:03:02.268Z,101055.44
2018-11-04T20:05:30.243Z,101049.12
2018-11-04T20:07:57.324Z,101043.69
2018-11-04T20:10:24.530Z,101038.80
2018-11-04T20:12:57.664Z,101034.99
2018-11-04T20:15:25.314Z,101033.87
2018-11-04T20:17:52.396Z,101036.17
2018-11-04T20:20:23.317Z,101029.95
2018-11-04T20:22:50.223Z,101027.83
2018-11-04T20:25:23.891Z,101030.21
2018-11-04T20:27:51.056Z,101041.03
2018-11-04T20:30:18.257Z,101040.50
2018-11-04T20:32:51.083Z,101044.00
2018-11-04T20:35:18.164Z,101034.80
2018-11-04T20:37:45.279Z,101034.55
2018-11-04T20:40:18.872Z,101034.22
2018-11-04T20:42:46.120Z,101039.05
2018-11-04T20:45:13.284Z,101039.37
2018-11-04T20:47:46.052Z,101033.66
2018-11-04T20:50:18.959Z,101031.47
2018-11-04T20:52:46.041Z,101026.05
2018-11-04T20:55:13.836Z,101022.35
2018-11-04T20:57:44.377Z,101018.16
2018-11-04T21:00:12.733Z,101017.52
2018-11-04T21:02:41.399Z,101018.29
2018-11-04T21:05:08.434Z,101015.80
2018-11-04T21:07:36.030Z,101011.46
2018-11-04T21:10:04.699Z,101008.49
2018-11-04T21:12:31.749Z,101004.93
2018-11-04T21:14:58.844Z,101003.06
2018-11-04T21:17:26.071Z,101004.97
2018-11-04T21:19:53.236Z,100997.13
2018-11-04T21:22:20.521Z,101002.53
2018-11-04T21:24:47.640Z,101000.48
2018-11-04T21:27:14.700Z,100991.86
2018-11-04T21:29:42.173Z,100991.62
2018-11-04T21:32:09.152Z,100985.48
2018-11-04T21:34:36.713Z,100982.02
2018-11-04T21:37:06.116Z,100975.67
2018-11-04T21:39:33.213Z,100982.37
2018-11-04T21:42:00.567Z,100979.03
2018-11-04T21:44:27.853Z,100968.25
2018-11-04T21:46:55.269Z,100968.91
2018-11-04T21:49:22.394Z,100967.27
2018-11-04T21:51:49.425Z,100971.19
2018-11-04T21:54:16.517Z,100965.63
2018-11-04T21:56:43.814Z,100967.88
2018-11-04T21:59:10.856Z,100967.50
2018-11-04T22:01:38.183Z,100964.08
2018-11-04T22:04:05.416Z,100947.66
2018-11-04T22:06:32.424Z,100958.94
2018-11-04T22:08:59.515Z,100952.45
2018-11-04T22:11:26.596Z,100950.20
2018-11-04T22:13:54.268Z,100948.95
2018-11-04T22:16:21.276Z,100943.55
2018-11-04T22:18:48.352Z,100942.64
2018-11-04T22:21:15.467Z,100938.79
2018-11-04T22:23:42.892Z,100938.02
2018-11-04T22:26:09.959Z,100939.27
2018-11-04T22:28:37.024Z,100936.02
2018-11-04T22:31:04.459Z,100938.70
2018-11-04T22:33:31.519Z,100934.69
2018-11-04T22:35:58.660Z,100937.19
2018-11-04T22:38:25.805Z,100937.63
2018-11-04T22:40:52.875Z,100929.84
2018-11-04T22:43:19.949Z,100930.23
2018-11-04T22:45:47.094Z,100932.78
2018-11-04T22:48:14.164Z,100928.67
2018-11-04T22:50:41.264Z,100936.19
2018-11-04T22:53:08.337Z,100930.09
2018-11-04T22:55:35.434Z,100931.44
2018-11-04T22:58:06.452Z,100926.52
2018-11-04T23:00:39.724Z,100921.75
2018-11-04T23:03:06.996Z,100919.30
2018-11-04T23:05:34.048Z,100920.03
2018-11-04T23:08:01.143Z,100926.67
2018-11-04T23:10:28.211Z,100919.75
2018-11-04T23:12:55.415Z,100922.13
2018-11-04T23:15:22.521Z,100924.06
2018-11-04T23:17:49.602Z,100921.47
2018-11-04T23:20:16.847Z,100916.05
2018-11-04T23:22:44.215Z,100916.83
2018-11-04T23:25:12.484Z,100921.30
2018-11-04T23:27:41.177Z,100916.62
2018-11-04T23:30:13.249Z,100913.38
2018-11-04T23:32:40.595Z,100909.89
2018-11-04T23:35:09.771Z,100915.00
2018-11-04T23:37:36.850Z,100912.25
2018-11-04T23:40:04.493Z,100905.39
2018-11-04T23:42:31.560Z,100903.45
2018-11-04T23:44:58.640Z,100905.01
2018-11-04T23:47:25.748Z,100889.21
2018-11-04T23:49:53.186Z,100895.88
2018-11-04T23:52:20.283Z,100894.81
2018-11-04T23:54:47.359Z,100889.43
2018-11-04T23:57:14.445Z,100897.66
2018-11-04T23:59:41.609Z,100897.84
